createdAt,value
2023-03-06T00:00:56.808Z,100073.09
2023-03-06T00:03:26.040Z,100078.81
2023-03-06T00:06:02.498Z,100069.50
2023-03-06T00:08:29.835Z,100063.50
2023-03-06T00:10:57.800Z,100061.47
2023-03-06T00:13:29.938Z,100063.69
2023-03-06T00:16:00.977Z,100055.50
2023-03-06T00:18:28.213Z,100064.56
2023-03-06T00:20:55.359Z,100058.81
2023-03-06T00:23:22.565Z,100061.97
2023-03-06T00:25:49.985Z,100058.47
2023-03-06T00:28:17.770Z,100059.22
2023-03-06T00:30:46.408Z,100057.22
2023-03-06T00:33:13.582Z,100056.75
2023-03-06T00:35:41.705Z,100047.97
2023-03-06T00:38:12.371Z,100046.84
2023-03-06T00:40:39.721Z,100043.63
2023-03-06T00:43:06.877Z,100049.34
2023-03-06T00:45:34.247Z,100043.69
2023-03-06T00:48:01.514Z,100042.75
2023-03-06T00:50:28.742Z,100039.25
2023-03-06T00:52:56.034Z,100036.59
2023-03-06T00:55:23.265Z,100034.38
2023-03-06T00:57:50.409Z,100043.16
2023-03-06T01:00:18.247Z,100037.34
2023-03-06T01:02:45.518Z,100033.19
2023-03-06T01:05:14.257Z,100034.09
2023-03-06T01:07:41.544Z,100034.88
2023-03-06T01:10:10.050Z,100033.19
2023-03-06T01:12:37.279Z,100032.38
2023-03-06T01:15:05.739Z,100026.69
2023-03-06T01:17:32.887Z,100023.44
2023-03-06T01:20:00.097Z,100025.91
2023-03-06T01:22:27.229Z,100029.66
2023-03-06T01:24:54.422Z,100023.34
2023-03-06T01:27:21.943Z,100025.16
2023-03-06T01:29:49.102Z,100018.56
2023-03-06T01:32:16.314Z,100016.84
2023-03-06T01:34:43.482Z,100016.00
2023-03-06T01:37:10.607Z,100016.00
2023-03-06T01:39:37.828Z,100012.88
2023-03-06T01:42:05.354Z,100009.72
2023-03-06T01:44:32.699Z,100011.44
2023-03-06T01:47:02.258Z,100011.22
2023-03-06T01:49:39.145Z,100003.75
2023-03-06T01:52:18.709Z,100007.00
2023-03-06T01:54:59.212Z,100005.78
2023-03-06T01:57:43.886Z,100009.13
2023-03-06T02:00:23.217Z,99996.56
2023-03-06T02:03:14.891Z,100001.84
2023-03-06T02:05:44.358Z,100000.31
2023-03-06T02:08:16.456Z,99998.88
2023-03-06T02:11:02.180Z,100003.41
2023-03-06T02:13:30.868Z,99992.22
2023-03-06T02:15:58.632Z,99981.19
2023-03-06T02:18:26.201Z,99986.44
2023-03-06T02:20:58.938Z,99993.41
2023-03-06T02:24:06.789Z,99982.25
2023-03-06T02:26:37.718Z,99978.63
2023-03-06T02:29:07.829Z,99980.34
2023-03-06T02:31:36.018Z,99985.91
2023-03-06T02:34:15.459Z,99984.94
2023-03-06T02:36:48.885Z,99981.50
2023-03-06T02:39:22.072Z,99980.25
2023-03-06T02:41:49.408Z,99972.41
2023-03-06T02:44:16.582Z,99976.75
2023-03-06T02:46:43.810Z,99971.28
2023-03-06T02:49:11.015Z,99977.41
2023-03-06T02:51:38.165Z,99972.44
2023-03-06T02:54:05.383Z,99964.25
2023-03-06T02:56:32.705Z,99965.97
2023-03-06T02:58:59.856Z,99964.25
2023-03-06T03:01:27.099Z,99953.09
2023-03-06T03:03:54.262Z,99960.75
2023-03-06T03:06:21.485Z,99961.03
2023-03-06T03:08:48.616Z,99957.28
2023-03-06T03:11:15.764Z,99958.25
2023-03-06T03:13:42.948Z,99951.13
2023-03-06T03:16:15.414Z,99953.69
2023-03-06T03:18:44.468Z,99941.22
2023-03-06T03:21:14.541Z,99946.84
2023-03-06T03:23:41.764Z,99939.00
2023-03-06T03:26:14.085Z,99940.63
2023-03-06T03:28:41.476Z,99944.28
2023-03-06T03:31:10.893Z,99936.78
2023-03-06T03:33:39.855Z,99932.88
2023-03-06T03:36:08.357Z,99933.34
2023-03-06T03:38:37.047Z,99934.91
2023-03-06T03:41:04.817Z,99928.41
2023-03-06T03:43:32.090Z,99927.19
2023-03-06T03:45:59.337Z,99928.91
2023-03-06T03:48:26.634Z,99937.69
2023-03-06T03:50:53.783Z,99936.78
2023-03-06T03:53:20.934Z,99928.78
2023-03-06T03:55:49.470Z,99926.91
2023-03-06T03:58:16.669Z,99930.97
2023-03-06T04:00:43.824Z,99926.84
2023-03-06T04:03:10.974Z,99931.06
2023-03-06T04:05:38.123Z,99928.56
2023-03-06T04:08:05.512Z,99926.53
2023-03-06T04:10:32.768Z,99922.72
2023-03-06T04:13:00.516Z,99923.69
2023-03-06T04:15:27.651Z,99914.78
2023-03-06T04:17:54.868Z,99922.84
2023-03-06T04:20:22.165Z,99920.47
2023-03-06T04:22:49.282Z,99916.50
2023-03-06T04:25:16.799Z,99910.28
2023-03-06T04:27:43.968Z,99910.59
2023-03-06T04:30:12.232Z,99909.56
2023-03-06T04:32:39.500Z,99904.03
2023-03-06T04:35:06.926Z,99905.75
2023-03-06T04:37:34.079Z,99906.91
2023-03-06T04:40:01.337Z,99906.91
2023-03-06T04:42:28.806Z,99899.56
2023-03-06T04:44:55.964Z,99904.63
2023-03-06T04:47:23.177Z,99912.50
2023-03-06T04:49:50.407Z,99902.84
2023-03-06T04:52:17.596Z,99899.00
2023-03-06T04:54:46.009Z,99893.16
2023-03-06T04:57:14.143Z,99898.72
2023-03-06T04:59:41.517Z,99899.41
2023-03-06T05:02:08.755Z,99893.66
2023-03-06T05:04:35.941Z,99896.34
2023-03-06T05:07:03.161Z,99892.38
2023-03-06T05:09:30.320Z,99897.78
2023-03-06T05:11:57.475Z,99892.28
2023-03-06T05:14:24.721Z,99898.69
2023-03-06T05:16:52.012Z,99904.84
2023-03-06T05:19:19.224Z,99894.75
2023-03-06T05:21:46.437Z,99903.44
2023-03-06T05:24:13.563Z,99899.72
2023-03-06T05:26:40.796Z,99895.53
2023-03-06T05:29:08.064Z,99897.63
2023-03-06T05:31:35.237Z,99893.63
2023-03-06T05:34:02.430Z,99894.19
2023-03-06T05:36:29.694Z,99894.38
2023-03-06T05:38:57.028Z,99894.97
2023-03-06T05:41:24.256Z,99890.94
2023-03-06T05:43:53.274Z,99888.84
2023-03-06T05:46:20.661Z,99892.94
2023-03-06T05:48:48.145Z,99894.53
2023-03-06T05:51:15.682Z,99896.34
2023-03-06T05:53:42.824Z,99895.00
2023-03-06T05:56:10.400Z,99892.28
2023-03-06T05:58:38.287Z,99903.78
2023-03-06T06:01:14.904Z,99896.06
2023-03-06T06:03:42.131Z,99887.50
2023-03-06T06:06:12.114Z,99893.66
2023-03-06T06:08:40.520Z,99894.53
2023-03-06T06:11:10.590Z,99891.41
2023-03-06T06:13:39.243Z,99893.41
2023-03-06T06:16:16.500Z,99890.69
2023-03-06T06:18:43.726Z,99898.34
2023-03-06T06:21:13.334Z,99888.47
2023-03-06T06:23:41.519Z,99889.88
2023-03-06T06:26:10.070Z,99894.00
2023-03-06T06:28:37.434Z,99886.00
2023-03-06T06:31:13.099Z,99884.78
2023-03-06T06:33:41.542Z,99883.72
2023-03-06T06:36:20.206Z,99885.72
2023-03-06T06:38:48.211Z,99882.69
2023-03-06T06:44:08.853Z,99883.53
2023-03-06T06:47:20.636Z,99891.16
2023-03-06T06:49:24.509Z,99883.19
2023-03-06T06:51:51.685Z,99884.69
2023-03-06T06:54:20.062Z,99889.47
2023-03-06T06:56:47.194Z,99880.13
2023-03-06T06:59:17.162Z,99880.78
2023-03-06T07:01:45.120Z,99877.66
2023-03-06T07:04:13.878Z,99883.72
2023-03-06T07:06:42.283Z,99882.41
2023-03-06T07:09:09.576Z,99891.38
2023-03-06T07:11:38.886Z,99895.44
2023-03-06T07:14:06.174Z,99881.09
2023-03-06T07:16:33.386Z,99882.31
2023-03-06T07:19:00.635Z,99888.31
2023-03-06T07:21:27.804Z,99893.84
2023-03-06T07:23:57.224Z,99888.97
2023-03-06T07:26:28.132Z,99886.88
2023-03-06T07:28:55.441Z,99879.75
2023-03-06T07:31:27.067Z,99884.97
2023-03-06T07:33:55.242Z,99884.88
2023-03-06T07:36:23.815Z,99874.63
2023-03-06T07:38:51.054Z,99888.66
2023-03-06T07:41:21.857Z,99884.97
2023-03-06T07:43:50.112Z,99881.47
2023-03-06T07:46:17.942Z,99878.78
2023-03-06T07:48:45.206Z,99889.47
2023-03-06T07:51:19.527Z,99893.81
2023-03-06T07:53:49.901Z,99890.69
2023-03-06T07:56:17.328Z,99895.06
2023-03-06T07:58:46.806Z,99882.59
2023-03-06T08:01:18.157Z,99889.44
2023-03-06T08:03:46.509Z,99883.56
2023-03-06T08:06:17.679Z,99886.28
2023-03-06T08:08:47.077Z,99895.91
2023-03-06T08:11:19.054Z,99893.53
2023-03-06T08:13:48.777Z,99891.91
2023-03-06T08:16:17.278Z,99892.56
2023-03-06T08:18:46.376Z,99897.59
2023-03-06T08:21:18.310Z,99898.94
2023-03-06T08:23:45.929Z,99912.16
2023-03-06T08:26:21.007Z,99917.56
2023-03-06T08:28:50.440Z,99920.03
2023-03-06T08:31:28.905Z,99918.22
2023-03-06T08:33:58.919Z,99925.56
2023-03-06T08:36:26.222Z,99926.78
2023-03-06T08:38:53.446Z,99918.88
2023-03-06T08:41:21.254Z,99921.84
2023-03-06T08:43:49.464Z,99922.69
2023-03-06T08:46:18.710Z,99932.75
2023-03-06T08:48:48.180Z,99925.72
2023-03-06T08:51:17.609Z,99927.34
2023-03-06T08:53:45.449Z,99916.06
2023-03-06T08:56:36.387Z,99926.69
2023-03-06T08:59:06.632Z,99929.34
2023-03-06T09:01:37.759Z,99925.66
2023-03-06T09:04:09.853Z,99923.44
2023-03-06T09:06:41.635Z,99929.69
2023-03-06T09:09:09.869Z,99928.59
2023-03-06T09:11:37.706Z,99934.66
2023-03-06T09:14:06.388Z,99929.19
2023-03-06T09:16:33.664Z,99934.66
2023-03-06T09:19:00.821Z,99936.00
2023-03-06T09:21:28.599Z,99930.78
2023-03-06T09:23:56.451Z,99934.56
2023-03-06T09:26:32.779Z,99931.53
2023-03-06T09:29:07.872Z,99935.44
2023-03-06T09:31:35.090Z,99935.03
2023-03-06T09:34:02.279Z,99936.22
2023-03-06T09:36:29.436Z,99939.59
2023-03-06T09:38:56.572Z,99937.34
2023-03-06T09:41:40.853Z,99933.16
2023-03-06T09:44:19.884Z,99931.44
2023-03-06T09:46:59.138Z,99925.34
2023-03-06T09:49:38.557Z,99921.72
2023-03-06T09:52:17.742Z,99919.44
2023-03-06T09:54:55.845Z,99917.13
2023-03-06T09:57:29.193Z,99917.44
2023-03-06T10:00:04.181Z,99917.16
2023-03-06T10:02:42.151Z,99913.69
2023-03-06T10:05:38.254Z,99916.53
2023-03-06T10:08:25.740Z,99920.03
2023-03-06T10:11:11.507Z,99914.22
2023-03-06T10:13:48.117Z,99912.19
2023-03-06T10:16:31.408Z,99914.69
2023-03-06T10:19:10.234Z,99909.81
2023-03-06T10:21:53.380Z,99907.16
2023-03-06T10:24:34.683Z,99918.84
2023-03-06T10:27:18.278Z,99912.34
2023-03-06T10:30:02.037Z,99912.34
2023-03-06T10:32:58.592Z,99920.28
2023-03-06T10:35:34.509Z,99918.72
2023-03-06T10:38:19.126Z,99919.28
2023-03-06T10:41:10.622Z,99919.00
2023-03-06T10:43:44.148Z,99917.56
2023-03-06T10:46:29.488Z,99914.03
2023-03-06T10:49:00.217Z,99903.44
2023-03-06T10:51:30.286Z,99910.19
2023-03-06T10:54:02.914Z,99915.66
2023-03-06T10:56:36.081Z,99914.38
2023-03-06T10:59:31.105Z,99917.34
2023-03-06T11:02:26.396Z,99921.66
2023-03-06T11:04:56.591Z,99921.09
2023-03-06T11:07:30.130Z,99922.88
2023-03-06T11:09:57.162Z,99926.19
2023-03-06T11:12:39.865Z,99918.50
2023-03-06T11:15:09.809Z,99931.84
2023-03-06T11:17:47.750Z,99931.69
2023-03-06T11:20:15.904Z,99939.03
2023-03-06T11:22:51.139Z,99933.59
2023-03-06T11:25:25.625Z,99939.06
2023-03-06T11:28:02.114Z,99932.25
2023-03-06T11:30:47.333Z,99934.47
2023-03-06T11:33:36.384Z,99924.66
2023-03-06T11:36:23.064Z,99924.94
2023-03-06T11:38:53.667Z,99911.78
2023-03-06T11:41:49.316Z,99916.72
2023-03-06T11:44:24.191Z,99915.97
2023-03-06T11:47:25.784Z,99922.09
2023-03-06T11:50:14.611Z,99929.59
2023-03-06T11:52:52.417Z,99925.25
2023-03-06T11:55:39.143Z,99926.81
2023-03-06T11:58:42.524Z,99919.22
2023-03-06T12:01:15.611Z,99915.19
2023-03-06T12:04:42.832Z,99918.28
2023-03-06T12:07:26.158Z,99914.59
2023-03-06T12:10:23.298Z,99910.41
2023-03-06T12:13:32.503Z,99902.31
2023-03-06T12:16:43.318Z,99886.06
2023-03-06T12:19:16.551Z,99888.28
2023-03-06T12:22:24.385Z,99882.56
2023-03-06T12:25:22.861Z,99881.16
2023-03-06T12:28:18.154Z,99887.84
2023-03-06T12:31:28.452Z,99882.19
2023-03-06T12:34:24.455Z,99886.22
2023-03-06T12:37:22.821Z,99880.66
2023-03-06T12:40:18.853Z,99882.03
2023-03-06T12:43:23.321Z,99873.34
2023-03-06T12:45:59.907Z,99876.91
2023-03-06T12:48:36.206Z,99873.81
2023-03-06T12:51:07.697Z,99872.69
2023-03-06T12:53:37.036Z,99870.09
2023-03-06T12:56:04.840Z,99862.75
2023-03-06T12:58:31.900Z,99859.88
2023-03-06T13:01:46.185Z,99858.41
2023-03-06T13:04:42.844Z,99854.28
2023-03-06T13:07:30.142Z,99850.47
2023-03-06T13:10:28.924Z,99841.66
2023-03-06T13:13:01.041Z,99834.38
2023-03-06T13:15:36.694Z,99840.53
2023-03-06T13:18:22.178Z,99846.91
2023-03-06T13:20:55.426Z,99846.50
2023-03-06T13:23:43.291Z,99846.28
2023-03-06T13:26:31.602Z,99860.28
2023-03-06T13:28:58.940Z,99848.84
2023-03-06T13:31:36.390Z,99848.25
2023-03-06T13:34:39.555Z,99841.59
2023-03-06T13:37:24.827Z,99855.38
2023-03-06T13:39:54.957Z,99855.72
2023-03-06T13:42:32.962Z,99851.16
2023-03-06T13:45:30.095Z,99854.78
2023-03-06T13:48:30.264Z,99846.75
2023-03-06T13:50:52.448Z,99847.53
2023-03-06T13:53:47.223Z,99850.00
2023-03-06T13:56:56.633Z,99846.53
2023-03-06T14:00:11.883Z,99852.56
2023-03-06T14:03:25.002Z,99836.03
2023-03-06T14:05:52.578Z,99840.59
2023-03-06T14:08:24.621Z,99836.97
2023-03-06T14:11:19.011Z,99828.22
2023-03-06T14:13:52.517Z,99829.88
2023-03-06T14:16:25.237Z,99830.03
2023-03-06T14:18:56.031Z,99823.59
2023-03-06T14:21:45.597Z,99820.91
2023-03-06T14:24:19.942Z,99811.94
2023-03-06T14:26:51.676Z,99811.53
2023-03-06T14:29:25.365Z,99811.09
2023-03-06T14:31:59.406Z,99800.75
2023-03-06T14:34:37.020Z,99789.00
2023-03-06T14:37:18.367Z,99801.72
2023-03-06T14:39:46.652Z,99798.19
2023-03-06T14:42:27.653Z,99809.22
2023-03-06T14:45:20.341Z,99799.25
2023-03-06T14:47:52.824Z,99803.31
2023-03-06T14:50:25.846Z,99798.72
2023-03-06T14:53:04.803Z,99794.81
2023-03-06T14:55:35.484Z,99806.28
2023-03-06T14:58:14.952Z,99808.53
2023-03-06T15:01:42.878Z,99800.38
2023-03-06T15:04:38.257Z,99806.66
2023-03-06T15:07:14.869Z,99798.16
2023-03-06T15:09:48.694Z,99803.19
2023-03-06T15:12:19.741Z,99800.09
2023-03-06T15:15:02.645Z,99794.50
2023-03-06T15:17:42.316Z,99798.34
2023-03-06T15:20:51.017Z,99792.59
2023-03-06T15:23:35.617Z,99787.13
2023-03-06T15:26:31.476Z,99786.31
2023-03-06T15:29:22.963Z,99777.31
2023-03-06T15:31:50.271Z,99776.78
2023-03-06T15:34:23.987Z,99778.88
2023-03-06T15:36:58.253Z,99779.94
2023-03-06T15:39:35.345Z,99788.72
2023-03-06T15:42:27.979Z,99793.69
2023-03-06T15:45:03.255Z,99783.13
2023-03-06T15:47:30.581Z,99781.03
2023-03-06T15:49:57.811Z,99782.34
2023-03-06T15:52:25.086Z,99787.13
2023-03-06T15:54:52.337Z,99786.00
2023-03-06T15:57:26.776Z,99787.34
2023-03-06T15:59:56.166Z,99792.59
2023-03-06T16:02:27.194Z,99790.44
2023-03-06T16:04:54.584Z,99790.13
2023-03-06T16:07:21.988Z,99792.22
2023-03-06T16:09:49.289Z,99782.25
2023-03-06T16:12:21.735Z,99780.53
2023-03-06T16:14:49.507Z,99779.31
2023-03-06T16:17:17.347Z,99782.38
2023-03-06T16:19:45.047Z,99782.00
2023-03-06T16:22:12.284Z,99779.00
2023-03-06T16:24:39.634Z,99779.84
2023-03-06T16:27:06.920Z,99773.84
2023-03-06T16:29:34.262Z,99775.25
2023-03-06T16:32:02.243Z,99773.22
2023-03-06T16:34:29.508Z,99777.59
2023-03-06T16:36:56.634Z,99772.50
2023-03-06T16:39:24.575Z,99776.66
2023-03-06T16:41:52.459Z,99769.72
2023-03-06T16:44:21.317Z,99765.75
2023-03-06T16:46:50.187Z,99770.16
2023-03-06T16:49:24.427Z,99773.56
2023-03-06T16:51:53.040Z,99766.47
2023-03-06T16:54:21.766Z,99767.84
2023-03-06T16:56:48.924Z,99766.44
2023-03-06T16:59:16.089Z,99769.63
2023-03-06T17:01:43.548Z,99761.66
2023-03-06T17:04:11.617Z,99770.97
2023-03-06T17:06:39.653Z,99765.06
2023-03-06T17:09:07.003Z,99766.44
2023-03-06T17:11:38.700Z,99772.97
2023-03-06T17:14:06.847Z,99768.16
2023-03-06T17:16:36.443Z,99763.25
2023-03-06T17:19:03.629Z,99776.13
2023-03-06T17:21:30.775Z,99764.56
2023-03-06T17:23:57.938Z,99759.00
2023-03-06T17:26:25.289Z,99763.59
2023-03-06T17:28:52.462Z,99768.00
2023-03-06T17:31:23.821Z,99776.94
2023-03-06T17:33:57.064Z,99776.09
2023-03-06T17:36:24.598Z,99765.28
2023-03-06T17:38:56.802Z,99769.00
2023-03-06T17:41:24.704Z,99778.91
2023-03-06T17:43:55.050Z,99777.25
2023-03-06T17:46:22.329Z,99777.72
2023-03-06T17:48:49.469Z,99777.59
2023-03-06T17:51:16.589Z,99780.16
2023-03-06T17:53:43.711Z,99787.22
2023-03-06T17:56:14.088Z,99783.94
2023-03-06T17:58:41.398Z,99792.69
2023-03-06T18:01:16.666Z,99789.22
2023-03-06T18:03:47.041Z,99778.25
2023-03-06T18:06:15.878Z,99777.66
2023-03-06T18:08:43.724Z,99777.34
2023-03-06T18:11:11.493Z,99773.69
2023-03-06T18:13:42.908Z,99777.91
2023-03-06T18:16:13.539Z,99772.56
2023-03-06T18:18:40.960Z,99777.34
2023-03-06T18:21:11.894Z,99769.41
2023-03-06T18:23:40.486Z,99768.38
2023-03-06T18:26:27.980Z,99769.50
2023-03-06T18:29:01.318Z,99770.00
2023-03-06T18:31:34.577Z,99769.16
2023-03-06T18:34:06.735Z,99765.72
2023-03-06T18:36:35.400Z,99759.06
2023-03-06T18:39:07.069Z,99762.00
2023-03-06T18:41:34.557Z,99759.22
2023-03-06T18:44:02.085Z,99763.84
2023-03-06T18:46:33.617Z,99758.03
2023-03-06T18:49:01.555Z,99758.63
2023-03-06T18:51:28.866Z,99759.06
2023-03-06T18:53:58.215Z,99760.69
2023-03-06T18:56:25.870Z,99761.59
2023-03-06T18:58:53.804Z,99761.44
2023-03-06T19:01:22.907Z,99759.03
2023-03-06T19:03:50.302Z,99758.22
2023-03-06T19:06:18.418Z,99756.72
2023-03-06T19:08:45.746Z,99758.00
2023-03-06T19:11:16.298Z,99759.47
2023-03-06T19:13:44.097Z,99755.59
2023-03-06T19:16:21.674Z,99751.72
2023-03-06T19:18:48.991Z,99741.91
2023-03-06T19:21:19.773Z,99736.72
2023-03-06T19:23:47.254Z,99735.47
2023-03-06T19:26:16.251Z,99724.91
2023-03-06T19:28:43.447Z,99735.75
2023-03-06T19:31:20.611Z,99730.09
2023-03-06T19:33:49.794Z,99726.31
2023-03-06T19:36:18.546Z,99724.50
2023-03-06T19:38:50.259Z,99714.34
2023-03-06T19:41:17.816Z,99721.84
2023-03-06T19:43:52.062Z,99716.94
2023-03-06T19:46:21.241Z,99714.53
2023-03-06T19:48:53.508Z,99713.34
2023-03-06T19:51:20.677Z,99703.84
2023-03-06T19:53:47.911Z,99704.97
2023-03-06T19:56:20.563Z,99698.34
2023-03-06T19:58:48.564Z,99698.31
2023-03-06T20:01:19.418Z,99697.38
2023-03-06T20:03:46.766Z,99689.47
2023-03-06T20:06:18.834Z,99697.13
2023-03-06T20:08:47.380Z,99700.78
2023-03-06T20:11:20.312Z,99702.69
2023-03-06T20:13:48.087Z,99687.31
2023-03-06T20:16:17.223Z,99693.00
2023-03-06T20:18:45.608Z,99684.41
2023-03-06T20:21:14.110Z,99680.88
2023-03-06T20:23:42.279Z,99677.06
2023-03-06T20:26:12.835Z,99675.78
2023-03-06T20:28:42.102Z,99665.31
2023-03-06T20:31:17.309Z,99670.94
2023-03-06T20:33:51.403Z,99672.94
2023-03-06T20:36:24.061Z,99664.50
2023-03-06T20:38:51.469Z,99661.97
2023-03-06T20:41:28.388Z,99654.00
2023-03-06T20:43:55.755Z,99662.97
2023-03-06T20:46:23.946Z,99655.13
2023-03-06T20:48:53.149Z,99648.84
2023-03-06T20:51:31.527Z,99646.44
2023-03-06T20:54:00.799Z,99646.81
2023-03-06T20:56:32.880Z,99643.03
2023-03-06T20:59:00.342Z,99628.06
2023-03-06T21:01:38.195Z,99631.94
2023-03-06T21:04:05.514Z,99631.38
2023-03-06T21:06:33.162Z,99630.56
2023-03-06T21:09:01.861Z,99618.63
2023-03-06T21:11:29.574Z,99617.44
2023-03-06T21:13:57.012Z,99603.41
2023-03-06T21:16:27.077Z,99608.94
2023-03-06T21:18:55.636Z,99602.28
2023-03-06T21:21:27.488Z,99600.13
2023-03-06T21:23:54.853Z,99587.41
2023-03-06T21:26:26.438Z,99598.41
2023-03-06T21:28:56.028Z,99588.69
2023-03-06T21:31:23.556Z,99579.13
2023-03-06T21:33:51.063Z,99584.94
2023-03-06T21:36:21.645Z,99586.59
2023-03-06T21:38:51.409Z,99576.84
2023-03-06T21:41:26.262Z,99569.47
2023-03-06T21:43:57.441Z,99560.16
2023-03-06T21:46:25.529Z,99565.66
2023-03-06T21:48:54.127Z,99554.19
2023-03-06T21:51:23.638Z,99553.41
2023-03-06T21:53:53.129Z,99541.09
2023-03-06T21:56:24.980Z,99529.75
2023-03-06T21:58:52.476Z,99532.25
2023-03-06T22:01:24.987Z,99520.22
2023-03-06T22:03:52.671Z,99519.81
2023-03-06T22:06:24.039Z,99512.06
2023-03-06T22:08:51.970Z,99505.75
2023-03-06T22:11:22.613Z,99501.31
2023-03-06T22:13:50.614Z,99502.50
2023-03-06T22:16:18.410Z,99484.69
2023-03-06T22:18:48.818Z,99487.94
2023-03-06T22:21:20.059Z,99486.41
2023-03-06T22:23:53.074Z,99483.19
2023-03-06T22:26:20.843Z,99471.84
2023-03-06T22:28:48.096Z,99468.50
2023-03-06T22:31:25.699Z,99468.78
2023-03-06T22:33:54.545Z,99452.31
2023-03-06T22:36:23.341Z,99447.41
2023-03-06T22:38:57.220Z,99449.63
2023-03-06T22:41:26.652Z,99452.44
2023-03-06T22:43:59.567Z,99452.22
2023-03-06T22:46:27.393Z,99439.59
2023-03-06T22:49:02.313Z,99441.50
2023-03-06T22:51:29.744Z,99439.28
2023-03-06T22:53:57.055Z,99435.56
2023-03-06T22:56:24.823Z,99433.84
2023-03-06T22:58:52.203Z,99427.91
2023-03-06T23:01:26.835Z,99419.38
2023-03-06T23:03:57.704Z,99421.84
2023-03-06T23:06:35.100Z,99415.31
2023-03-06T23:09:14.688Z,99408.13
2023-03-06T23:11:42.373Z,99406.06
2023-03-06T23:14:12.636Z,99395.22
2023-03-06T23:16:39.821Z,99392.50
2023-03-06T23:19:07.965Z,99392.16
2023-03-06T23:21:35.300Z,99372.41
2023-03-06T23:24:02.793Z,99373.78
2023-03-06T23:26:32.052Z,99367.16
2023-03-06T23:28:59.246Z,99370.94
2023-03-06T23:31:30.047Z,99354.94
2023-03-06T23:34:00.682Z,99350.47
2023-03-06T23:36:29.737Z,99346.94
2023-03-06T23:38:57.777Z,99336.44
2023-03-06T23:41:25.191Z,99334.28
2023-03-06T23:43:55.032Z,99328.91
2023-03-06T23:46:22.614Z,99325.09
2023-03-06T23:48:49.895Z,99315.50
2023-03-06T23:51:20.989Z,99309.56
2023-03-06T23:53:58.662Z,99299.16
2023-03-06T23:56:28.339Z,99288.69
2023-03-06T23:58:55.607Z,99288.69
